Time;durP1;ratioP1;P1;durP2;ratioP2;P2;SDS_P1;SDS_P2;PMS_P1;PMS_P2;Temp;Humidity;BMP_temperature;BMP_pressure;BME280_temperature;BME280_humidity;BME280_pressure;Samples;Min_cycle;Max_cycle;Signal;HPM_P1;HPM_P2
2022/10/30 00:01:04;;;;;;;26.03;18.50;;;15.60;84.50;;;;;;5009113;28;20552;-68
2022/10/30 00:03:31;;;;;;;22.90;17.93;;;15.60;84.30;;;;;;5005528;28;20207;-68
2022/10/30 00:05:58;;;;;;;35.30;19.93;;;15.60;84.40;;;;;;5000886;28;20544;-68
2022/10/30 00:08:25;;;;;;;24.07;16.70;;;15.60;84.50;;;;;;5003894;28;20282;-69
2022/10/30 00:10:52;;;;;;;26.97;16.23;;;15.50;84.50;;;;;;5004526;28;20245;-69
2022/10/30 00:13:20;;;;;;;23.97;16.37;;;15.50;84.60;;;;;;5001541;28;20224;-68
2022/10/30 00:15:52;;;;;;;28.40;17.03;;;15.50;84.50;;;;;;5000466;28;20196;-68
2022/10/30 00:18:19;;;;;;;23.87;17.27;;;15.50;84.60;;;;;;5008933;28;20217;-68
2022/10/30 00:20:47;;;;;;;28.97;17.13;;;15.50;84.60;;;;;;5001620;28;20207;-69
2022/10/30 00:23:15;;;;;;;31.10;17.97;;;15.40;84.70;;;;;;5002482;28;20200;-69
2022/10/30 00:25:42;;;;;;;28.53;17.07;;;15.40;84.70;;;;;;5006031;28;20266;-69
2022/10/30 00:28:09;;;;;;;24.93;15.70;;;15.40;84.80;;;;;;5001834;28;20629;-69
2022/10/30 00:30:36;;;;;;;25.57;15.73;;;15.40;84.90;;;;;;5010364;28;20263;-68
2022/10/30 00:33:03;;;;;;;22.57;16.60;;;15.40;85.00;;;;;;5008545;28;20273;-69
2022/10/30 00:35:30;;;;;;;26.67;17.47;;;15.40;85.00;;;;;;5017281;28;20205;-69
2022/10/30 00:37:59;;;;;;;26.10;16.23;;;15.30;85.00;;;;;;5001601;28;20809;-69
2022/10/30 00:40:28;;;;;;;22.57;15.93;;;15.30;85.10;;;;;;5002735;28;20210;-69
2022/10/30 00:42:55;;;;;;;22.27;15.93;;;15.30;85.20;;;;;;5000170;28;20294;-69
2022/10/30 00:45:22;;;;;;;23.63;16.77;;;15.30;85.30;;;;;;5001954;28;20242;-69
2022/10/30 00:47:57;;;;;;;30.57;18.50;;;15.30;85.20;;;;;;5001428;28;20198;-69
2022/10/30 00:50:30;;;;;;;28.47;16.87;;;15.20;85.20;;;;;;5000062;28;20213;-69
2022/10/30 00:53:05;;;;;;;31.23;17.97;;;15.20;85.20;;;;;;4998399;28;20203;-69
2022/10/30 00:55:38;;;;;;;22.10;17.27;;;15.20;85.20;;;;;;5006812;28;20293;-69
2022/10/30 00:58:09;;;;;;;25.13;16.87;;;15.10;85.20;;;;;;5009601;28;20556;-69
2022/10/30 01:00:39;;;;;;;26.83;16.50;;;15.10;85.30;;;;;;5004252;28;20664;-69
2022/10/30 01:03:06;;;;;;;23.50;17.27;;;15.00;85.40;;;;;;5001849;28;20214;-69
2022/10/30 01:05:35;;;;;;;28.93;18.13;;;15.00;85.60;;;;;;5001084;28;20211;-69
2022/10/30 01:08:03;;;;;;;25.50;16.93;;;15.00;85.80;;;;;;5003399;28;20214;-69
2022/10/30 01:10:30;;;;;;;24.40;16.90;;;14.90;85.90;;;;;;5003763;28;20649;-69
2022/10/30 01:12:58;;;;;;;26.87;16.90;;;14.90;85.90;;;;;;5000676;28;20206;-69
2022/10/30 01:15:35;;;;;;;22.87;15.70;;;14.90;85.90;;;;;;5002233;28;20266;-69
2022/10/30 01:18:06;;;;;;;25.70;15.67;;;14.80;85.80;;;;;;5008061;28;20639;-69
2022/10/30 01:20:36;;;;;;;23.97;16.17;;;14.80;85.80;;;;;;5007295;28;20204;-69
2022/10/30 01:23:33;;;;;;;25.50;16.60;;;14.80;85.80;;;;;;4998787;28;20235;-69
2022/10/30 01:26:24;;;;;;;24.67;17.03;;;14.80;85.90;;;;;;5003271;28;20588;-69
2022/10/30 01:29:11;;;;;;;23.50;16.63;;;14.80;85.90;;;;;;5015805;28;20239;-69
2022/10/30 01:32:00;;;;;;;26.00;15.70;;;14.80;85.80;;;;;;5019012;28;20219;-69
2022/10/30 01:34:41;;;;;;;26.30;17.17;;;14.80;85.80;;;;;;5016385;28;20648;-69
2022/10/30 01:37:52;;;;;;;31.33;17.20;;;14.70;85.80;;;;;;4999305;28;20290;-68
2022/10/30 01:40:20;;;;;;;25.93;19.00;;;14.70;85.90;;;;;;5002940;28;20249;-69
2022/10/30 01:42:51;;;;;;;28.77;17.33;;;14.70;85.90;;;;;;5035015;28;20274;-69
2022/10/30 01:45:28;;;;;;;25.63;16.53;;;14.70;85.80;;;;;;5038920;28;20214;-69
2022/10/30 01:48:08;;;;;;;29.57;18.60;;;14.70;85.80;;;;;;5013952;28;20544;-69
2022/10/30 01:50:47;;;;;;;24.63;17.37;;;14.70;85.90;;;;;;4994927;28;20219;-69
2022/10/30 01:53:32;;;;;;;23.33;18.47;;;14.70;86.20;;;;;;5020676;28;20286;-69
2022/10/30 01:56:06;;;;;;;29.20;19.00;;;14.60;86.20;;;;;;5013274;28;20214;-69
2022/10/30 01:59:11;;;;;;;25.30;17.47;;;14.60;86.30;;;;;;5010861;28;20296;-69
2022/10/30 02:01:39;;;;;;;29.40;20.77;;;14.60;86.40;;;;;;5008319;28;20208;-69
2022/10/30 02:04:12;;;;;;;29.87;20.10;;;14.60;86.50;;;;;;5012999;28;20204;-69
2022/10/30 02:06:40;;;;;;;30.90;19.10;;;14.60;86.80;;;;;;5013057;28;20202;-69
2022/10/30 02:09:08;;;;;;;26.23;19.37;;;14.60;86.80;;;;;;5009649;28;20304;-69
2022/10/30 02:11:45;;;;;;;26.10;17.80;;;14.60;86.90;;;;;;4993998;28;20232;-69
2022/10/30 02:14:17;;;;;;;31.27;19.57;;;14.60;87.00;;;;;;5021856;28;20202;-69
2022/10/30 02:16:47;;;;;;;28.63;18.77;;;14.60;86.90;;;;;;5009577;28;20692;-69
2022/10/30 02:19:18;;;;;;;25.40;18.70;;;14.60;86.90;;;;;;5010603;28;20234;-69
2022/10/30 02:21:45;;;;;;;27.20;19.07;;;14.60;86.80;;;;;;5010171;28;20240;-69
2022/10/30 02:24:12;;;;;;;26.57;18.33;;;14.60;86.90;;;;;;5006982;28;20346;-70
2022/10/30 02:26:39;;;;;;;28.70;18.37;;;14.60;87.00;;;;;;5010579;28;20629;-69
2022/10/30 02:29:06;;;;;;;24.93;18.57;;;14.50;87.00;;;;;;5010772;28;20218;-69
2022/10/30 02:31:34;;;;;;;25.77;17.33;;;14.50;87.10;;;;;;5010089;28;20208;-69
2022/10/30 02:34:01;;;;;;;25.83;17.57;;;14.50;87.20;;;;;;5012410;28;20215;-69
2022/10/30 02:36:28;;;;;;;25.97;17.50;;;14.50;87.20;;;;;;5001686;28;20208;-69
2022/10/30 02:38:55;;;;;;;26.97;17.97;;;14.50;87.00;;;;;;5012958;28;20298;-69
2022/10/30 02:41:23;;;;;;;22.43;17.07;;;14.50;86.90;;;;;;5009770;28;20231;-69
2022/10/30 02:43:52;;;;;;;25.10;17.20;;;14.50;86.80;;;;;;5003872;28;20202;-69
2022/10/30 02:46:19;;;;;;;23.30;15.40;;;14.50;86.70;;;;;;5001258;28;20196;-69
2022/10/30 02:48:47;;;;;;;24.63;15.10;;;14.40;86.70;;;;;;5010800;28;20598;-69
2022/10/30 02:51:14;;;;;;;18.37;14.10;;;14.40;86.80;;;;;;5007779;28;20223;-70
2022/10/30 02:53:42;;;;;;;22.03;14.90;;;14.40;86.80;;;;;;5008709;28;20218;-70
2022/10/30 02:56:12;;;;;;;24.27;15.07;;;14.40;86.70;;;;;;5006094;28;20214;-69
2022/10/30 02:58:41;;;;;;;20.77;15.23;;;14.40;86.80;;;;;;4994160;28;20278;-69
2022/10/30 03:01:14;;;;;;;22.93;14.27;;;14.40;86.80;;;;;;5010958;28;20579;-69
2022/10/30 03:03:43;;;;;;;21.93;15.23;;;14.30;86.80;;;;;;5007099;28;20648;-69
2022/10/30 03:06:14;;;;;;;19.70;13.17;;;14.30;86.80;;;;;;5005213;28;20211;-69
2022/10/30 03:08:42;;;;;;;20.83;13.60;;;14.30;86.80;;;;;;5005737;28;20212;-69
2022/10/30 03:11:15;;;;;;;20.93;13.73;;;14.30;86.90;;;;;;5011133;28;20234;-70
2022/10/30 03:13:44;;;;;;;20.13;12.97;;;14.30;87.00;;;;;;5008372;28;20594;-70
2022/10/30 03:16:20;;;;;;;20.80;12.63;;;14.20;87.00;;;;;;5010938;28;20196;-70
2022/10/30 03:18:47;;;;;;;16.17;12.33;;;14.20;86.80;;;;;;5012128;28;20219;-69
2022/10/30 03:21:17;;;;;;;20.27;13.03;;;14.20;86.90;;;;;;4994617;28;20232;-69
2022/10/30 03:23:44;;;;;;;16.17;11.43;;;14.20;86.90;;;;;;5010047;28;20215;-70
2022/10/30 03:26:12;;;;;;;17.93;12.13;;;14.20;86.80;;;;;;5011317;28;20203;-70
2022/10/30 03:28:47;;;;;;;15.83;12.40;;;14.20;86.70;;;;;;5012967;28;20543;-69
2022/10/30 03:31:16;;;;;;;17.37;11.30;;;14.10;86.70;;;;;;4996846;28;20632;-70
2022/10/30 03:33:45;;;;;;;15.13;11.73;;;14.10;86.60;;;;;;5004912;28;20218;-70
2022/10/30 03:36:13;;;;;;;18.43;10.53;;;14.10;86.50;;;;;;5014980;28;20219;-70
2022/10/30 03:38:41;;;;;;;20.37;11.90;;;14.10;86.50;;;;;;5007916;28;20273;-70
2022/10/30 03:41:12;;;;;;;19.10;12.83;;;14.10;86.60;;;;;;5012672;28;20202;-69
2022/10/30 03:43:39;;;;;;;18.33;11.87;;;14.10;86.60;;;;;;5001442;28;20626;-69
2022/10/30 03:46:06;;;;;;;23.53;12.73;;;14.00;86.70;;;;;;4999271;28;20272;-69
2022/10/30 03:48:33;;;;;;;16.37;12.73;;;14.00;86.80;;;;;;5010164;28;20230;-70
2022/10/30 03:51:01;;;;;;;16.97;12.30;;;14.00;86.90;;;;;;5010390;28;20647;-70
2022/10/30 03:53:29;;;;;;;18.37;12.93;;;14.00;87.00;;;;;;4999913;28;20198;-69
2022/10/30 03:55:58;;;;;;;21.50;13.63;;;14.00;87.00;;;;;;5035555;28;20206;-69
2022/10/30 03:58:28;;;;;;;24.10;14.13;;;14.00;87.10;;;;;;5005255;28;20227;-69
2022/10/30 04:01:04;;;;;;;20.37;13.50;;;13.90;87.00;;;;;;5010035;28;20219;-69
2022/10/30 04:03:34;;;;;;;20.27;13.20;;;13.90;87.10;;;;;;5012666;28;20220;-70
2022/10/30 04:06:02;;;;;;;20.90;12.93;;;13.90;87.00;;;;;;5006690;28;20206;-70
2022/10/30 04:08:29;;;;;;;18.13;12.93;;;13.90;87.00;;;;;;5006258;28;20206;-70
2022/10/30 04:10:56;;;;;;;25.40;13.57;;;13.90;86.90;;;;;;5004838;28;20345;-70
2022/10/30 04:13:24;;;;;;;21.73;13.47;;;13.90;87.00;;;;;;5005280;28;20222;-70
2022/10/30 04:15:52;;;;;;;20.40;13.83;;;13.90;86.90;;;;;;5005094;28;20197;-70
2022/10/30 04:18:24;;;;;;;22.17;14.23;;;13.90;86.90;;;;;;5018865;28;20210;-70
2022/10/30 04:20:52;;;;;;;22.03;14.87;;;13.80;86.90;;;;;;5004361;28;20239;-70
2022/10/30 04:23:21;;;;;;;20.77;14.50;;;13.80;87.00;;;;;;5004128;28;20237;-70
2022/10/30 04:25:48;;;;;;;18.00;14.30;;;13.80;87.10;;;;;;4994602;28;20650;-70
2022/10/30 04:28:15;;;;;;;25.93;14.63;;;13.80;87.30;;;;;;5003481;28;20302;-70
2022/10/30 04:30:44;;;;;;;20.77;14.03;;;13.80;87.40;;;;;;5007954;28;20211;-69
2022/10/30 04:33:14;;;;;;;20.80;14.53;;;13.80;87.50;;;;;;5003434;28;20542;-69
2022/10/30 04:35:41;;;;;;;21.03;14.73;;;13.80;87.50;;;;;;5003850;28;20235;-69
2022/10/30 04:38:17;;;;;;;19.53;14.63;;;13.80;87.30;;;;;;5005328;28;20212;-69
2022/10/30 04:40:45;;;;;;;18.90;13.50;;;13.80;87.20;;;;;;5000718;28;20273;-70
2022/10/30 04:43:13;;;;;;;26.50;15.40;;;13.80;87.10;;;;;;5007512;28;20210;-70
2022/10/30 04:45:42;;;;;;;22.90;14.07;;;13.70;87.00;;;;;;5029574;28;20216;-70
2022/10/30 04:48:13;;;;;;;24.07;14.63;;;13.70;87.00;;;;;;5009390;28;20612;-70
2022/10/30 04:50:42;;;;;;;25.97;14.77;;;13.70;87.20;;;;;;5009860;28;20570;-69
2022/10/30 04:53:17;;;;;;;20.13;14.47;;;13.70;87.30;;;;;;5003891;28;20647;-70
2022/10/30 04:55:51;;;;;;;22.83;15.03;;;13.70;87.40;;;;;;5009151;28;20240;-70
2022/10/30 04:58:19;;;;;;;29.93;15.17;;;13.70;87.40;;;;;;5010401;28;20218;-70
2022/10/30 05:00:51;;;;;;;23.73;14.10;;;13.70;87.50;;;;;;5002677;28;20339;-70
2022/10/30 05:03:23;;;;;;;22.67;14.87;;;13.70;87.40;;;;;;5032975;28;20257;-70
2022/10/30 05:06:00;;;;;;;23.50;14.30;;;13.70;87.40;;;;;;5007840;28;20205;-70
2022/10/30 05:08:28;;;;;;;22.23;14.40;;;13.70;87.40;;;;;;5002569;28;20211;-69
2022/10/30 05:10:56;;;;;;;21.97;15.17;;;13.60;87.30;;;;;;5005030;28;20214;-70
2022/10/30 05:13:23;;;;;;;20.03;13.47;;;13.60;87.20;;;;;;5006539;28;20309;-69
2022/10/30 05:15:53;;;;;;;21.80;14.50;;;13.60;87.30;;;;;;5006466;28;20545;-70
2022/10/30 05:18:21;;;;;;;18.97;13.43;;;13.60;87.40;;;;;;5003757;28;20588;-70
2022/10/30 05:20:48;;;;;;;25.77;14.23;;;13.60;87.50;;;;;;5007718;28;20554;-70
2022/10/30 05:23:15;;;;;;;18.37;13.03;;;13.60;87.40;;;;;;5010906;28;20742;-70
2022/10/30 05:25:42;;;;;;;17.63;13.30;;;13.60;87.40;;;;;;5007605;28;20200;-70
2022/10/30 05:28:11;;;;;;;19.90;13.70;;;13.60;87.30;;;;;;5012251;28;20214;-70
2022/10/30 05:30:45;;;;;;;19.33;12.63;;;13.50;87.20;;;;;;5013158;28;20200;-70
2022/10/30 05:33:42;;;;;;;19.40;12.67;;;13.50;87.10;;;;;;5030840;28;20290;-70
2022/10/30 05:36:10;;;;;;;16.63;12.33;;;13.50;87.10;;;;;;5002616;28;20200;-70
2022/10/30 05:38:37;;;;;;;17.07;12.53;;;13.50;87.30;;;;;;5008653;28;20212;-70
2022/10/30 05:41:08;;;;;;;20.17;12.90;;;13.50;87.40;;;;;;5014358;28;20542;-70
2022/10/30 05:43:36;;;;;;;17.50;11.97;;;13.50;87.50;;;;;;5006593;28;20639;-70
2022/10/30 05:46:03;;;;;;;16.90;11.43;;;13.50;87.60;;;;;;5021307;28;20256;-70
2022/10/30 05:48:31;;;;;;;18.83;10.97;;;13.50;87.60;;;;;;5008007;28;20254;-70
2022/10/30 05:50:58;;;;;;;18.83;11.43;;;13.50;87.60;;;;;;5001863;28;20594;-70
2022/10/30 05:53:27;;;;;;;17.27;11.63;;;13.50;87.60;;;;;;5013803;28;20593;-70
2022/10/30 05:55:57;;;;;;;18.70;12.13;;;13.50;87.60;;;;;;4999445;28;20233;-70
2022/10/30 05:58:29;;;;;;;15.10;11.20;;;13.60;87.70;;;;;;5007426;28;20298;-69
2022/10/30 06:01:04;;;;;;;21.70;15.33;;;13.60;87.60;;;;;;5005710;28;20222;-70
2022/10/30 06:03:39;;;;;;;21.53;13.10;;;13.60;87.50;;;;;;5005945;28;20644;-69
2022/10/30 06:06:06;;;;;;;18.13;13.63;;;13.70;87.30;;;;;;5012922;28;20203;-69
2022/10/30 06:08:34;;;;;;;23.47;13.87;;;13.70;87.20;;;;;;5004524;28;20273;-69
2022/10/30 06:11:12;;;;;;;36.67;21.57;;;13.70;87.00;;;;;;5021952;28;20273;-69
2022/10/30 06:13:43;;;;;;;25.40;15.73;;;13.80;86.90;;;;;;5000692;28;20238;-69
2022/10/30 06:16:11;;;;;;;25.73;15.03;;;13.80;86.80;;;;;;5007459;28;20222;-69
2022/10/30 06:19:16;;;;;;;17.60;12.50;;;13.90;86.80;;;;;;5012920;28;20237;-70
2022/10/30 06:21:47;;;;;;;22.00;14.10;;;13.90;86.60;;;;;;5001839;28;20280;-69
2022/10/30 06:24:23;;;;;;;21.97;13.00;;;14.00;86.60;;;;;;5005545;28;20216;-69
2022/10/30 06:27:09;;;;;;;19.03;12.90;;;14.10;86.50;;;;;;5008654;28;20541;-69
2022/10/30 06:29:36;;;;;;;20.73;12.63;;;14.20;86.30;;;;;;5004875;28;20218;-70
2022/10/30 06:32:04;;;;;;;25.10;13.23;;;14.20;86.10;;;;;;5012125;28;20207;-69
2022/10/30 06:34:33;;;;;;;19.00;12.07;;;14.30;85.90;;;;;;5019320;28;20214;-69
2022/10/30 06:37:00;;;;;;;27.67;15.57;;;14.30;85.50;;;;;;5010828;28;20302;-67
2022/10/30 06:39:28;;;;;;;18.07;12.23;;;14.30;85.50;;;;;;5008079;28;20265;-64
2022/10/30 06:42:12;;;;;;;15.17;11.10;;;14.40;85.20;;;;;;5000648;28;20196;-67
2022/10/30 06:44:48;;;;;;;16.20;11.80;;;14.50;85.20;;;;;;5018881;28;20202;-68
2022/10/30 06:47:15;;;;;;;17.33;11.03;;;14.50;85.10;;;;;;5011151;28;20552;-68
2022/10/30 06:49:42;;;;;;;16.47;11.17;;;14.70;85.20;;;;;;5001552;28;20211;-68
2022/10/30 06:52:09;;;;;;;18.60;10.67;;;14.90;84.70;;;;;;5005304;28;20648;-68
2022/10/30 06:54:37;;;;;;;19.40;11.67;;;15.20;83.60;;;;;;5002583;28;20646;-68
2022/10/30 06:57:32;;;;;;;20.17;11.53;;;15.50;82.60;;;;;;5006348;28;20350;-68
2022/10/30 07:00:12;;;;;;;22.53;11.60;;;15.80;81.60;;;;;;5035324;28;20227;-68
2022/10/30 07:02:59;;;;;;;19.60;12.00;;;16.10;80.90;;;;;;5005856;28;20701;-68
2022/10/30 07:05:28;;;;;;;19.73;12.70;;;16.50;79.70;;;;;;5007642;28;20222;-69
2022/10/30 07:07:57;;;;;;;15.43;11.30;;;16.80;78.60;;;;;;5009679;28;20201;-69
2022/10/30 07:10:24;;;;;;;16.47;11.57;;;17.10;77.50;;;;;;5003221;28;20253;-69
2022/10/30 07:13:10;;;;;;;18.33;11.60;;;17.40;76.60;;;;;;5003060;28;20297;-69
2022/10/30 07:15:58;;;;;;;15.03;11.70;;;17.60;75.70;;;;;;5007586;28;20222;-69
2022/10/30 07:18:31;;;;;;;24.53;14.27;;;17.80;74.90;;;;;;5012383;28;20218;-69
2022/10/30 07:21:00;;;;;;;30.47;14.67;;;18.00;74.50;;;;;;5018387;28;20223;-69
2022/10/30 07:23:28;;;;;;;19.23;14.10;;;18.10;74.40;;;;;;5003792;28;20252;-69
2022/10/30 07:26:07;;;;;;;25.47;14.87;;;18.20;74.30;;;;;;5009135;28;20211;-69
2022/10/30 07:28:37;;;;;;;21.57;14.33;;;18.20;74.40;;;;;;5001994;28;20219;-69
2022/10/30 07:31:19;;;;;;;21.03;14.67;;;18.20;74.60;;;;;;5008118;28;20215;-69
2022/10/30 07:34:24;;;;;;;22.30;14.07;;;18.20;75.00;;;;;;5005522;28;20230;-69
2022/10/30 07:37:17;;;;;;;23.67;14.90;;;18.10;75.60;;;;;;5003219;28;20295;-69
2022/10/30 07:39:52;;;;;;;20.30;14.33;;;18.00;76.10;;;;;;5009541;28;20675;-69
2022/10/30 07:42:22;;;;;;;22.90;15.80;;;17.90;76.60;;;;;;5009370;28;20306;-69
2022/10/30 07:45:21;;;;;;;20.63;14.30;;;17.90;77.00;;;;;;5016892;28;20332;-68
2022/10/30 07:48:26;;;;;;;23.90;15.63;;;17.90;77.50;;;;;;4976322;28;20333;-69
2022/10/30 07:51:05;;;;;;;21.93;15.07;;;18.00;77.70;;;;;;4957136;28;20348;-68
2022/10/30 07:53:33;;;;;;;21.30;13.40;;;18.00;77.70;;;;;;4981770;28;20214;-68
2022/10/30 07:56:00;;;;;;;21.33;13.63;;;18.10;77.60;;;;;;5009280;28;20214;-68
2022/10/30 07:58:46;;;;;;;21.93;14.17;;;18.20;77.50;;;;;;5003501;28;20239;-69
2022/10/30 08:01:31;;;;;;;25.80;13.37;;;18.30;77.20;;;;;;5011872;28;20235;-69
2022/10/30 08:04:12;;;;;;;21.53;12.33;;;18.40;76.90;;;;;;5009711;28;20216;-68
2022/10/30 08:06:41;;;;;;;18.27;12.60;;;18.50;76.60;;;;;;5004271;28;20233;-69
2022/10/30 08:09:09;;;;;;;17.67;12.43;;;18.60;76.20;;;;;;5012336;28;20201;-69
2022/10/30 08:11:36;;;;;;;20.63;13.17;;;18.80;75.90;;;;;;5008559;28;20218;-69
2022/10/30 08:14:03;;;;;;;18.17;12.20;;;18.90;75.60;;;;;;5001542;28;20241;-69
2022/10/30 08:16:30;;;;;;;22.93;11.87;;;19.00;75.20;;;;;;5003534;28;20209;-69
2022/10/30 08:18:58;;;;;;;16.43;11.77;;;19.10;75.00;;;;;;5003310;28;20208;-69
2022/10/30 08:21:25;;;;;;;19.83;11.70;;;19.20;74.70;;;;;;5002869;28;20221;-69
2022/10/30 08:23:57;;;;;;;19.87;11.50;;;19.20;74.30;;;;;;5008967;28;20269;-69
2022/10/30 08:26:27;;;;;;;16.93;11.27;;;19.40;74.20;;;;;;5009600;28;20209;-69
2022/10/30 08:28:54;;;;;;;15.17;10.53;;;19.40;73.80;;;;;;5009673;28;20220;-68
2022/10/30 08:31:23;;;;;;;18.50;11.10;;;19.60;73.90;;;;;;5015252;28;20829;-68
2022/10/30 08:34:04;;;;;;;20.57;10.83;;;19.70;72.80;;;;;;5002385;28;20320;-69
2022/10/30 08:36:52;;;;;;;22.13;10.70;;;19.80;72.10;;;;;;5021406;28;20305;-69
2022/10/30 08:39:20;;;;;;;16.17;10.07;;;19.90;71.70;;;;;;5002806;28;20297;-69
2022/10/30 08:41:59;;;;;;;16.83;9.63;;;20.00;71.50;;;;;;5007265;28;20301;-69
2022/10/30 08:44:32;;;;;;;19.70;11.23;;;20.10;71.40;;;;;;5010795;28;20203;-69
2022/10/30 08:47:28;;;;;;;15.97;10.67;;;20.20;70.80;;;;;;5009262;28;20215;-69
2022/10/30 08:49:55;;;;;;;17.73;9.77;;;20.30;70.60;;;;;;5001623;28;20219;-69
2022/10/30 08:52:26;;;;;;;16.47;9.93;;;20.40;70.30;;;;;;5005113;28;20210;-69
2022/10/30 08:54:55;;;;;;;20.87;11.07;;;20.50;70.00;;;;;;5002957;28;20302;-69
2022/10/30 08:57:25;;;;;;;19.70;11.40;;;20.60;69.70;;;;;;5008625;28;20211;-69
2022/10/30 08:59:54;;;;;;;17.77;10.60;;;20.60;69.50;;;;;;5009949;28;20211;-69
2022/10/30 09:02:40;;;;;;;18.57;11.37;;;20.80;69.60;;;;;;5002425;28;20225;-69
2022/10/30 09:05:25;;;;;;;20.57;11.43;;;20.90;69.20;;;;;;5001410;28;20273;-69
2022/10/30 09:08:15;;;;;;;20.30;12.67;;;21.00;68.70;;;;;;4986827;28;20227;-69
2022/10/30 09:11:08;;;;;;;17.83;12.93;;;21.00;68.60;;;;;;5012266;28;20266;-68
2022/10/30 09:13:36;;;;;;;21.27;12.07;;;21.10;68.30;;;;;;5008363;28;20203;-69
2022/10/30 09:16:05;;;;;;;19.73;12.33;;;21.20;68.10;;;;;;5007501;28;20305;-69
2022/10/30 09:18:35;;;;;;;20.33;12.93;;;21.30;68.00;;;;;;5006155;28;20302;-69
2022/10/30 09:21:02;;;;;;;23.83;15.13;;;21.40;68.00;;;;;;5009382;28;20612;-69
2022/10/30 09:23:36;;;;;;;21.87;12.60;;;21.50;67.80;;;;;;5030335;28;20330;-69
2022/10/30 09:26:22;;;;;;;18.23;12.60;;;21.50;67.50;;;;;;5008447;28;20213;-69
2022/10/30 09:29:01;;;;;;;24.90;13.00;;;21.60;67.50;;;;;;5007621;28;20195;-69
2022/10/30 09:31:40;;;;;;;19.67;12.67;;;21.70;67.50;;;;;;4999911;28;20213;-69
2022/10/30 09:34:12;;;;;;;23.33;13.07;;;21.80;67.30;;;;;;5000555;28;20262;-70
2022/10/30 09:36:45;;;;;;;20.13;13.10;;;21.90;67.10;;;;;;5004046;28;20223;-69
2022/10/30 09:39:12;;;;;;;20.30;13.53;;;22.00;67.00;;;;;;5021102;28;20305;-69
2022/10/30 09:42:01;;;;;;;29.40;15.67;;;22.10;66.70;;;;;;5007807;28;20224;-69
2022/10/30 09:44:46;;;;;;;18.67;14.33;;;22.20;66.50;;;;;;5017616;28;20245;-69
2022/10/30 09:47:36;;;;;;;23.37;14.50;;;22.40;66.10;;;;;;5015276;28;20211;-70
2022/10/30 09:50:26;;;;;;;25.40;15.77;;;22.50;66.00;;;;;;5006555;28;20200;-70
2022/10/30 09:53:40;;;;;;;20.73;15.13;;;22.50;65.90;;;;;;4999411;28;20219;-69
2022/10/30 09:56:42;;;;;;;24.23;15.07;;;22.70;65.80;;;;;;5004385;28;20203;-69
2022/10/30 10:00:00;;;;;;;25.53;16.60;;;22.80;65.50;;;;;;5001057;28;20219;-69
2022/10/30 10:02:54;;;;;;;24.37;16.60;;;22.90;64.80;;;;;;5032077;28;20310;-69
2022/10/30 10:05:26;;;;;;;25.33;16.07;;;23.00;64.40;;;;;;5005981;28;20204;-69
2022/10/30 10:08:21;;;;;;;24.07;16.33;;;23.00;64.20;;;;;;5004090;28;20649;-69
2022/10/30 10:11:14;;;;;;;32.47;16.10;;;23.10;64.40;;;;;;5006743;28;20566;-70
2022/10/30 10:13:48;;;;;;;30.20;16.00;;;23.20;64.20;;;;;;5005869;28;20513;-69
2022/10/30 10:16:27;;;;;;;27.37;15.77;;;23.30;64.20;;;;;;5005747;28;20200;-69
2022/10/30 10:19:00;;;;;;;25.50;15.23;;;23.40;64.00;;;;;;5009730;28;20561;-69
2022/10/30 10:21:28;;;;;;;28.43;15.70;;;23.40;64.10;;;;;;5005098;28;20278;-69
2022/10/30 10:23:59;;;;;;;26.13;18.30;;;23.60;64.00;;;;;;5001950;28;20266;-69
2022/10/30 10:26:56;;;;;;;27.57;18.47;;;23.60;63.70;;;;;;5009775;28;20210;-69
2022/10/30 10:29:32;;;;;;;29.20;17.93;;;23.70;62.20;;;;;;5011606;28;20204;-69
2022/10/30 10:32:27;;;;;;;28.73;18.57;;;23.80;62.20;;;;;;5002572;28;20263;-69
2022/10/30 10:35:32;;;;;;;26.90;18.33;;;23.80;62.10;;;;;;5011843;28;20204;-69
2022/10/30 10:38:08;;;;;;;27.60;16.77;;;23.80;62.00;;;;;;5005752;28;20614;-69
2022/10/30 10:40:50;;;;;;;30.67;17.57;;;23.90;62.40;;;;;;5004972;28;20243;-69
2022/10/30 10:43:23;;;;;;;31.90;17.80;;;24.00;62.30;;;;;;5005436;28;20235;-69
2022/10/30 10:46:08;;;;;;;29.13;15.73;;;24.10;61.60;;;;;;5003297;28;20227;-69
2022/10/30 10:49:03;;;;;;;23.80;14.23;;;24.20;61.50;;;;;;5003947;28;20200;-69
2022/10/30 10:51:39;;;;;;;22.67;15.17;;;24.30;61.60;;;;;;5004249;28;20265;-69
2022/10/30 10:54:36;;;;;;;22.43;15.57;;;24.40;61.20;;;;;;5002452;28;20220;-69
2022/10/30 10:57:05;;;;;;;27.80;14.80;;;24.60;61.80;;;;;;5004503;28;20201;-69
2022/10/30 10:59:43;;;;;;;24.33;13.97;;;24.60;59.80;;;;;;5004794;28;20220;-69
2022/10/30 11:02:55;;;;;;;23.30;15.57;;;24.70;60.00;;;;;;5003671;28;20267;-69
2022/10/30 11:05:52;;;;;;;19.73;13.27;;;24.80;58.70;;;;;;5002991;28;20271;-68
2022/10/30 11:08:29;;;;;;;19.50;13.40;;;24.80;58.40;;;;;;5002948;28;20263;-68
2022/10/30 11:10:57;;;;;;;18.63;12.93;;;24.90;58.80;;;;;;5004370;28;20243;-69
2022/10/30 11:13:37;;;;;;;18.07;12.63;;;24.90;58.50;;;;;;5004498;28;20201;-68
2022/10/30 11:16:19;;;;;;;21.30;12.50;;;24.90;58.80;;;;;;5005068;28;20203;-68
2022/10/30 11:18:49;;;;;;;22.97;13.50;;;25.00;59.00;;;;;;5006908;28;20217;-68
2022/10/30 11:21:21;;;;;;;21.27;13.60;;;25.20;58.50;;;;;;5006213;28;20224;-68
2022/10/30 11:23:49;;;;;;;26.07;13.57;;;25.20;57.60;;;;;;5002443;28;20193;-68
2022/10/30 11:26:24;;;;;;;16.87;11.97;;;25.30;57.10;;;;;;5001168;28;20205;-68
2022/10/30 11:28:55;;;;;;;21.13;13.17;;;25.30;57.30;;;;;;5009132;28;20196;-68
2022/10/30 11:31:33;;;;;;;20.23;12.10;;;25.30;57.20;;;;;;5003400;28;20559;-68
2022/10/30 11:34:12;;;;;;;22.10;12.90;;;25.40;57.50;;;;;;5001330;28;20206;-68
2022/10/30 11:36:39;;;;;;;22.50;13.20;;;25.40;57.00;;;;;;5003184;28;20607;-68
2022/10/30 11:39:16;;;;;;;22.20;12.57;;;25.40;56.80;;;;;;5002315;28;20212;-68
2022/10/30 11:41:57;;;;;;;19.73;10.97;;;25.50;56.70;;;;;;5005176;28;20550;-68
2022/10/30 11:44:29;;;;;;;20.63;12.93;;;25.60;57.30;;;;;;4997698;28;20265;-68
2022/10/30 11:46:57;;;;;;;21.27;12.70;;;25.70;56.80;;;;;;5002811;28;20212;-68
2022/10/30 11:49:49;;;;;;;16.67;11.93;;;25.70;55.90;;;;;;5000402;28;20200;-68
2022/10/30 11:52:19;;;;;;;17.97;11.70;;;25.70;55.80;;;;;;5008743;28;20213;-68
2022/10/30 11:54:51;;;;;;;15.23;9.67;;;25.70;55.70;;;;;;5004229;28;20207;-68
2022/10/30 11:57:43;;;;;;;17.20;11.37;;;25.70;56.00;;;;;;5003110;28;20203;-68
2022/10/30 12:00:23;;;;;;;15.57;10.13;;;25.70;55.40;;;;;;5004222;28;20637;-68
2022/10/30 12:02:55;;;;;;;16.63;10.57;;;25.70;56.20;;;;;;5004089;28;20254;-68
2022/10/30 12:05:31;;;;;;;22.30;13.03;;;25.80;56.40;;;;;;5001097;28;20252;-68
2022/10/30 12:08:07;;;;;;;18.73;11.80;;;25.90;55.60;;;;;;5001381;28;20512;-68
2022/10/30 12:10:55;;;;;;;20.53;12.43;;;25.90;55.00;;;;;;5009354;28;20252;-68
2022/10/30 12:13:23;;;;;;;19.33;11.03;;;25.90;55.20;;;;;;5003154;28;20255;-68
2022/10/30 12:16:07;;;;;;;15.40;10.40;;;25.90;55.20;;;;;;5001208;28;20206;-68
2022/10/30 12:18:34;;;;;;;17.43;10.20;;;25.90;54.80;;;;;;5004746;28;20205;-68
2022/10/30 12:21:02;;;;;;;19.60;11.40;;;25.90;54.80;;;;;;5001606;28;20269;-68
2022/10/30 12:23:31;;;;;;;15.70;9.37;;;25.90;55.10;;;;;;5003684;28;20705;-68
2022/10/30 12:26:01;;;;;;;19.93;8.70;;;26.00;55.30;;;;;;5009665;28;20198;-68
2022/10/30 12:28:33;;;;;;;17.87;9.07;;;26.00;54.50;;;;;;5003492;28;20203;-68
2022/10/30 12:31:13;;;;;;;21.00;9.67;;;26.00;54.80;;;;;;5002262;28;20285;-68
2022/10/30 12:34:16;;;;;;;15.33;9.13;;;26.10;54.20;;;;;;5001227;28;20566;-68
2022/10/30 12:36:52;;;;;;;13.93;7.87;;;26.10;54.30;;;;;;5004893;28;20217;-68
2022/10/30 12:39:29;;;;;;;17.70;8.57;;;26.10;54.50;;;;;;5001660;28;20208;-68
2022/10/30 12:42:07;;;;;;;14.23;8.33;;;26.20;54.40;;;;;;5006536;28;20585;-68
2022/10/30 12:44:50;;;;;;;17.70;8.60;;;26.20;53.50;;;;;;5000807;28;20205;-68
2022/10/30 12:47:38;;;;;;;14.73;8.47;;;26.20;52.40;;;;;;5005535;28;20207;-68
2022/10/30 12:50:17;;;;;;;14.73;8.37;;;26.20;52.40;;;;;;5005477;28;20197;-68
2022/10/30 12:53:22;;;;;;;15.00;7.27;;;26.10;53.10;;;;;;5001609;28;20211;-68
2022/10/30 12:55:58;;;;;;;12.87;7.83;;;26.10;53.70;;;;;;5008080;28;20274;-68
2022/10/30 12:58:40;;;;;;;11.33;6.50;;;26.10;53.70;;;;;;5000294;28;20211;-68
2022/10/30 13:01:29;;;;;;;19.27;7.47;;;26.20;53.70;;;;;;4999558;28;20286;-68
2022/10/30 13:04:10;;;;;;;12.17;6.90;;;26.20;52.60;;;;;;5014787;28;20641;-68
2022/10/30 13:06:48;;;;;;;15.07;6.30;;;26.20;52.50;;;;;;4988362;28;20200;-68